Napas, Russia
Current Conditions -  °F | °C
As of 8:00 PM on Thursday 23 Oct 2014 (Local Time) from USNN Reporting Station
Clear Clear  
Wind Chill: -6°   Ceiling: Unl
Heat Index:   Visibility: 6mi
Dew Point:   Wind: 4mph
Humidity: 85%   Direction: 70°ENE
Pressure: 30"   Gusts: NA
Location:  59.85°N, 81.97°E
Report Text: USNN 231300Z 07002MPS CAVOK M16/M18 Q1016 NOSIG RMK QFE75803410163
Loading
Personal Weather Stations






























Interactive Weather Map
Tropical Storm Tracking
New forecast layout! Learn more

10-Day Weather Forecast

Advertisements
Track Severe Weather on mobile